createdAt,value
2022-10-02T00:02:16.829Z,100724.63
2022-10-02T00:04:52.930Z,100726.88
2022-10-02T00:07:26.441Z,100724.47
2022-10-02T00:09:57.839Z,100728.16
2022-10-02T00:12:28.835Z,100727.00
2022-10-02T00:15:02.386Z,100731.84
2022-10-02T00:17:35.851Z,100739.19
2022-10-02T00:20:06.219Z,100738.47
2022-10-02T00:22:55.539Z,100741.75
2022-10-02T00:25:27.657Z,100747.84
2022-10-02T00:28:22.423Z,100749.53
2022-10-02T00:31:23.024Z,100762.00
2022-10-02T00:34:26.903Z,100756.19
2022-10-02T00:37:23.523Z,100758.88
2022-10-02T00:40:27.544Z,100758.19
2022-10-02T00:43:11.677Z,100765.00
2022-10-02T00:45:52.559Z,100765.25
2022-10-02T00:48:36.864Z,100752.78
2022-10-02T00:51:14.628Z,100751.09
2022-10-02T00:54:01.151Z,100747.56
2022-10-02T00:56:34.041Z,100743.03
2022-10-02T00:59:22.495Z,100742.19
2022-10-02T01:01:59.611Z,100744.44
2022-10-02T01:04:30.329Z,100731.56
2022-10-02T01:06:57.247Z,100730.69
2022-10-02T01:09:25.396Z,100710.41
2022-10-02T01:11:52.374Z,100722.31
2022-10-02T01:14:18.711Z,100733.50
2022-10-02T01:16:46.039Z,100734.78
2022-10-02T01:19:30.484Z,100736.06
2022-10-02T01:22:11.559Z,100734.09
2022-10-02T01:25:07.645Z,100748.41
2022-10-02T01:27:38.930Z,100760.16
2022-10-02T01:30:09.584Z,100761.47
2022-10-02T01:32:48.893Z,100770.25
2022-10-02T01:35:15.766Z,100759.19
2022-10-02T01:37:44.690Z,100771.94
2022-10-02T01:40:24.655Z,100771.78
2022-10-02T01:42:51.180Z,100758.88
2022-10-02T01:45:17.605Z,100751.06
2022-10-02T01:48:02.275Z,100746.97
2022-10-02T01:50:39.760Z,100744.28
2022-10-02T01:53:13.327Z,100748.97
2022-10-02T01:55:44.729Z,100758.72
2022-10-02T01:58:17.152Z,100758.16
2022-10-02T02:00:57.028Z,100762.78
2022-10-02T02:03:44.609Z,100751.06
2022-10-02T02:06:20.073Z,100763.91
2022-10-02T02:08:49.291Z,100756.69
2022-10-02T02:11:18.925Z,100752.72
2022-10-02T02:13:59.979Z,100759.22
2022-10-02T02:16:38.623Z,100760.63
2022-10-02T02:19:27.563Z,100773.00
2022-10-02T02:22:17.627Z,100762.22
2022-10-02T02:25:09.826Z,100770.88
2022-10-02T02:27:41.648Z,100766.59
2022-10-02T02:30:11.880Z,100776.84
2022-10-02T02:32:46.421Z,100773.41
2022-10-02T02:35:23.015Z,100773.13
2022-10-02T02:37:53.513Z,100760.78
2022-10-02T02:40:24.393Z,100759.50
2022-10-02T02:42:59.582Z,100766.72
2022-10-02T02:45:32.977Z,100773.41
2022-10-02T02:48:07.153Z,100780.34
2022-10-02T02:50:43.683Z,100771.84
2022-10-02T02:53:32.962Z,100781.88
2022-10-02T02:56:01.975Z,100771.13
2022-10-02T02:58:43.245Z,100771.25
2022-10-02T03:01:09.816Z,100770.56
2022-10-02T03:03:36.377Z,100777.84
2022-10-02T03:06:23.548Z,100794.56
2022-10-02T03:08:52.449Z,100782.66
2022-10-02T03:11:35.952Z,100782.81
2022-10-02T03:14:47.831Z,100777.84
2022-10-02T03:17:49.444Z,100774.47
2022-10-02T03:20:42.526Z,100768.94
2022-10-02T03:23:28.511Z,100758.47
2022-10-02T03:26:11.948Z,100756.31
2022-10-02T03:28:55.929Z,100769.06
2022-10-02T03:31:26.592Z,100768.22
2022-10-02T03:33:53.927Z,100770.19
2022-10-02T03:36:22.245Z,100766.09
2022-10-02T03:39:00.749Z,100774.13
2022-10-02T03:41:36.365Z,100764.63
2022-10-02T03:44:02.664Z,100765.22
2022-10-02T03:46:29.010Z,100767.78
2022-10-02T03:48:56.398Z,100771.88
2022-10-02T03:51:23.772Z,100779.56
2022-10-02T03:53:50.619Z,100781.41
2022-10-02T03:56:38.636Z,100770.63
2022-10-02T03:59:13.828Z,100776.00
2022-10-02T04:01:48.915Z,100771.63
2022-10-02T04:04:18.109Z,100779.69
2022-10-02T04:06:48.808Z,100776.84
2022-10-02T04:09:25.523Z,100775.44
2022-10-02T04:12:01.032Z,100776.28
2022-10-02T04:14:51.228Z,100772.75
2022-10-02T04:17:47.892Z,100755.19
2022-10-02T04:20:23.390Z,100765.81
2022-10-02T04:22:52.704Z,100761.97
2022-10-02T04:25:26.668Z,100765.66
2022-10-02T04:27:56.738Z,100771.50
2022-10-02T04:30:23.447Z,100768.66
2022-10-02T04:32:50.372Z,100763.28
2022-10-02T04:35:21.012Z,100762.81
2022-10-02T04:38:06.996Z,100761.81
2022-10-02T04:40:58.080Z,100759.00
2022-10-02T04:43:33.491Z,100761.94
2022-10-02T04:46:18.462Z,100763.63
2022-10-02T04:49:20.424Z,100770.16
2022-10-02T04:52:06.347Z,100769.28
2022-10-02T04:54:41.147Z,100772.28
2022-10-02T04:57:44.302Z,100777.94
2022-10-02T05:00:15.196Z,100781.06
2022-10-02T05:03:02.347Z,100780.22
2022-10-02T05:05:55.901Z,100775.00
2022-10-02T05:08:40.456Z,100775.13
2022-10-02T05:11:31.349Z,100778.69
2022-10-02T05:14:08.678Z,100769.91
2022-10-02T05:17:11.795Z,100772.28
2022-10-02T05:19:57.279Z,100764.06
2022-10-02T05:22:59.016Z,100771.25
2022-10-02T05:25:53.156Z,100775.09
2022-10-02T05:28:53.423Z,100777.81
2022-10-02T05:31:33.836Z,100762.69
2022-10-02T05:34:15.337Z,100774.53
2022-10-02T05:37:07.256Z,100770.59
2022-10-02T05:39:40.108Z,100769.72
2022-10-02T05:42:17.720Z,100776.25
2022-10-02T05:45:01.023Z,100774.84
2022-10-02T05:47:35.261Z,100796.38
2022-10-02T05:50:23.789Z,100793.00
2022-10-02T05:52:57.324Z,100798.66
2022-10-02T05:55:33.879Z,100797.09
2022-10-02T05:58:05.441Z,100796.41
2022-10-02T06:00:49.403Z,100796.41
2022-10-02T06:03:31.124Z,100797.25
2022-10-02T06:06:23.089Z,100793.03
2022-10-02T06:09:10.834Z,100800.38
2022-10-02T06:11:52.694Z,100802.94
2022-10-02T06:14:30.454Z,100792.28
2022-10-02T06:17:19.712Z,100801.38
2022-10-02T06:20:04.459Z,100798.28
2022-10-02T06:22:42.123Z,100800.38
2022-10-02T06:25:16.802Z,100799.28
2022-10-02T06:27:57.475Z,100798.69
2022-10-02T06:30:23.818Z,100791.19
2022-10-02T06:32:58.613Z,100792.19
2022-10-02T06:35:52.471Z,100794.00
2022-10-02T06:38:35.475Z,100801.22
2022-10-02T06:41:24.871Z,100803.81
2022-10-02T06:44:09.467Z,100808.47
2022-10-02T06:46:52.296Z,100804.06
2022-10-02T06:49:39.333Z,100809.75
2022-10-02T06:52:12.049Z,100805.22
2022-10-02T06:54:54.805Z,100809.19
2022-10-02T06:57:53.232Z,100814.44
2022-10-02T07:00:21.786Z,100813.44
2022-10-02T07:03:00.349Z,100823.47
2022-10-02T07:09:19.479Z,100821.78
2022-10-02T07:12:24.272Z,100821.22
2022-10-02T07:15:15.192Z,100821.94
2022-10-02T07:17:59.709Z,100824.78
2022-10-02T07:20:37.912Z,100819.41
2022-10-02T07:23:22.039Z,100819.94
2022-10-02T07:26:07.346Z,100824.47
2022-10-02T07:28:49.206Z,100832.56
2022-10-02T07:31:53.195Z,100826.47
2022-10-02T07:34:19.772Z,100821.09
2022-10-02T07:37:00.011Z,100820.25
2022-10-02T07:39:35.085Z,100820.25
2022-10-02T07:42:11.524Z,100821.38
2022-10-02T07:44:47.190Z,100836.41
2022-10-02T07:47:34.809Z,100835.53
2022-10-02T07:50:07.275Z,100839.22
2022-10-02T07:52:48.892Z,100846.31
2022-10-02T07:55:23.953Z,100842.91
2022-10-02T07:57:56.098Z,100847.31
2022-10-02T08:00:28.046Z,100837.53
2022-10-02T08:03:15.009Z,100834.84
2022-10-02T08:05:45.062Z,100828.75
2022-10-02T08:08:23.548Z,100831.16
2022-10-02T08:10:56.392Z,100833.00
2022-10-02T08:13:31.561Z,100839.22
2022-10-02T08:15:57.912Z,100820.09
2022-10-02T08:18:35.945Z,100840.94
2022-10-02T08:21:09.497Z,100841.47
2022-10-02T08:23:42.277Z,100840.53
2022-10-02T08:26:35.790Z,100847.44
2022-10-02T08:29:24.111Z,100844.91
2022-10-02T08:31:54.297Z,100831.00
2022-10-02T08:34:23.110Z,100828.75
2022-10-02T08:37:07.944Z,100827.88
2022-10-02T08:39:54.193Z,100822.22
2022-10-02T08:42:20.439Z,100833.69
2022-10-02T08:45:24.118Z,100835.38
2022-10-02T08:48:12.372Z,100837.22
2022-10-02T08:51:12.847Z,100838.94
2022-10-02T08:53:57.826Z,100840.66
2022-10-02T08:56:32.657Z,100855.09
2022-10-02T08:59:12.100Z,100859.34
2022-10-02T09:02:03.542Z,100844.03
2022-10-02T09:05:18.582Z,100850.56
2022-10-02T09:08:37.592Z,100858.50
2022-10-02T09:11:19.273Z,100846.72
2022-10-02T09:14:28.959Z,100846.56
2022-10-02T09:17:32.845Z,100846.56
2022-10-02T09:20:23.994Z,100845.72
2022-10-02T09:23:07.641Z,100841.19
2022-10-02T09:25:42.195Z,100834.53
2022-10-02T09:28:42.236Z,100826.56
2022-10-02T09:31:20.562Z,100845.16
2022-10-02T09:34:08.764Z,100852.09
2022-10-02T09:36:53.760Z,100850.25
2022-10-02T09:40:06.729Z,100852.94
2022-10-02T09:42:57.548Z,100854.78
2022-10-02T09:46:01.467Z,100850.81
2022-10-02T09:49:08.779Z,100852.66
2022-10-02T09:52:06.752Z,100853.50
2022-10-02T09:55:09.854Z,100849.09
2022-10-02T09:57:45.281Z,100847.16
2022-10-02T10:00:14.664Z,100846.41
2022-10-02T10:02:59.775Z,100838.31
2022-10-02T10:05:35.039Z,100839.31
2022-10-02T10:08:16.581Z,100837.63
2022-10-02T10:11:20.513Z,100833.41
2022-10-02T10:14:00.059Z,100802.91
2022-10-02T10:16:53.290Z,100816.66
2022-10-02T10:19:59.109Z,100825.84
2022-10-02T10:22:31.191Z,100811.84
2022-10-02T10:25:16.280Z,100812.53
2022-10-02T10:28:17.496Z,100801.06
2022-10-02T10:31:09.999Z,100828.69
2022-10-02T10:34:16.108Z,100851.50
2022-10-02T10:37:08.904Z,100860.44
2022-10-02T10:40:15.891Z,100861.28
2022-10-02T10:43:14.264Z,100866.38
2022-10-02T10:45:49.156Z,100870.19
2022-10-02T10:48:24.445Z,100871.16
2022-10-02T10:50:57.106Z,100873.72
2022-10-02T10:53:45.023Z,100878.41
2022-10-02T10:56:36.859Z,100875.72
2022-10-02T10:59:12.332Z,100870.00
2022-10-02T11:01:49.736Z,100873.44
2022-10-02T11:04:47.550Z,100881.78
2022-10-02T11:07:52.731Z,100875.81
2022-10-02T11:10:30.943Z,100845.38
2022-10-02T11:13:05.562Z,100864.06
2022-10-02T11:15:53.644Z,100860.97
2022-10-02T11:19:10.888Z,100862.34
2022-10-02T11:22:12.492Z,100861.50
2022-10-02T11:25:12.854Z,100864.34
2022-10-02T11:27:53.555Z,100860.94
2022-10-02T11:30:26.154Z,100864.47
2022-10-02T11:33:18.067Z,100868.59
2022-10-02T11:36:00.820Z,100879.38
2022-10-02T11:38:54.733Z,100873.13
2022-10-02T11:41:26.933Z,100874.81
2022-10-02T11:44:27.942Z,100873.97
2022-10-02T11:47:21.541Z,100880.09
2022-10-02T11:50:19.147Z,100875.97
2022-10-02T11:53:06.527Z,100881.06
2022-10-02T11:55:40.932Z,100881.91
2022-10-02T11:58:19.469Z,100886.88
2022-10-02T12:01:05.766Z,100887.88
2022-10-02T12:03:53.996Z,100885.19
2022-10-02T12:06:57.268Z,100877.78
2022-10-02T12:09:46.884Z,100864.31
2022-10-02T12:12:27.900Z,100868.84
2022-10-02T12:15:23.865Z,100863.03
2022-10-02T12:17:53.303Z,100851.84
2022-10-02T12:21:03.874Z,100858.22
2022-10-02T12:24:28.725Z,100861.47
2022-10-02T12:27:09.713Z,100855.91
2022-10-02T12:30:07.583Z,100858.19
2022-10-02T12:32:45.214Z,100870.22
2022-10-02T12:35:45.195Z,100874.91
2022-10-02T12:38:59.828Z,100878.16
2022-10-02T12:41:45.078Z,100873.31
2022-10-02T12:44:31.999Z,100863.69
2022-10-02T12:47:20.984Z,100866.34
2022-10-02T12:49:58.019Z,100880.34
2022-10-02T12:52:53.900Z,100876.69
2022-10-02T12:55:58.436Z,100863.91
2022-10-02T12:58:56.871Z,100863.63
2022-10-02T13:01:49.185Z,100867.59
2022-10-02T13:04:39.088Z,100858.66
2022-10-02T13:07:42.932Z,100865.44
2022-10-02T13:10:29.256Z,100870.84
2022-10-02T13:13:10.441Z,100872.09
2022-10-02T13:16:06.153Z,100863.84
2022-10-02T13:18:47.570Z,100859.94
2022-10-02T13:21:22.275Z,100855.16
2022-10-02T13:24:19.647Z,100870.59
2022-10-02T13:27:18.562Z,100871.28
2022-10-02T13:29:57.796Z,100870.81
2022-10-02T13:32:34.442Z,100874.94
2022-10-02T13:35:38.673Z,100860.19
2022-10-02T13:38:31.035Z,100862.88
2022-10-02T13:41:06.640Z,100876.22
2022-10-02T13:43:46.645Z,100877.06
2022-10-02T13:46:37.742Z,100875.22
2022-10-02T13:49:04.029Z,100870.72
2022-10-02T13:51:49.291Z,100879.81
2022-10-02T13:54:38.212Z,100872.03
2022-10-02T13:57:19.736Z,100872.72
2022-10-02T13:59:57.617Z,100875.75
2022-10-02T14:02:46.787Z,100870.34
2022-10-02T14:05:31.383Z,100877.28
2022-10-02T14:08:31.675Z,100874.72
2022-10-02T14:11:22.649Z,100877.44
2022-10-02T14:14:10.519Z,100874.56
2022-10-02T14:17:07.108Z,100876.75
2022-10-02T14:19:45.845Z,100882.72
2022-10-02T14:22:49.046Z,100872.25
2022-10-02T14:25:37.297Z,100878.38
2022-10-02T14:28:21.731Z,100880.47
2022-10-02T14:30:59.851Z,100883.72
2022-10-02T14:34:01.232Z,100883.53
2022-10-02T14:36:33.584Z,100893.09
2022-10-02T14:39:26.411Z,100889.44
2022-10-02T14:42:05.274Z,100883.81
2022-10-02T14:44:44.186Z,100890.06
2022-10-02T14:47:43.587Z,100895.59
2022-10-02T14:50:19.517Z,100901.97
2022-10-02T14:53:14.199Z,100906.25
2022-10-02T14:55:46.709Z,100896.31
2022-10-02T14:58:26.758Z,100898.28
2022-10-02T15:01:15.472Z,100908.09
2022-10-02T15:03:57.044Z,100916.88
2022-10-02T15:07:11.744Z,100909.34
2022-10-02T15:09:59.913Z,100911.88
2022-10-02T15:12:43.524Z,100905.78
2022-10-02T15:15:17.403Z,100909.50
2022-10-02T15:18:14.808Z,100900.56
2022-10-02T15:21:00.369Z,100911.19
2022-10-02T15:23:32.476Z,100919.59
2022-10-02T15:26:11.875Z,100916.88
2022-10-02T15:28:54.235Z,100907.78
2022-10-02T15:31:35.812Z,100906.78
2022-10-02T15:34:17.458Z,100906.78
2022-10-02T15:36:52.799Z,100909.66
2022-10-02T15:39:22.106Z,100912.34
2022-10-02T15:42:02.935Z,100917.59
2022-10-02T15:44:45.381Z,100918.44
2022-10-02T15:47:35.625Z,100917.16
2022-10-02T15:50:07.925Z,100900.28
2022-10-02T15:52:49.412Z,100893.09
2022-10-02T15:55:39.551Z,100904.56
2022-10-02T15:58:33.816Z,100908.84
2022-10-02T16:01:29.460Z,100913.38
2022-10-02T16:04:13.763Z,100915.34
2022-10-02T16:06:53.426Z,100929.00
2022-10-02T16:09:49.037Z,100923.03
2022-10-02T16:12:33.460Z,100930.56
2022-10-02T16:15:22.284Z,100922.78
2022-10-02T16:18:07.008Z,100936.81
2022-10-02T16:20:59.316Z,100937.41
2022-10-02T16:23:43.729Z,100937.56
2022-10-02T16:26:23.724Z,100946.75
2022-10-02T16:28:59.763Z,100947.63
2022-10-02T16:32:00.998Z,100943.66
2022-10-02T16:34:57.181Z,100954.59
2022-10-02T16:37:46.025Z,100958.53
2022-10-02T16:40:29.897Z,100960.66
2022-10-02T16:43:21.329Z,100953.44
2022-10-02T16:46:24.578Z,100954.16
2022-10-02T16:49:01.666Z,100954.69
2022-10-02T16:51:44.965Z,100961.09
2022-10-02T16:54:21.335Z,100967.78
2022-10-02T16:57:18.385Z,100967.03
2022-10-02T17:00:05.101Z,100972.44
2022-10-02T17:02:37.406Z,100976.41
2022-10-02T17:05:17.438Z,100971.75
2022-10-02T17:07:57.828Z,100983.81
2022-10-02T17:10:48.959Z,100988.59
2022-10-02T17:13:46.724Z,101001.53
2022-10-02T17:16:23.459Z,100998.84
2022-10-02T17:18:57.218Z,101002.78
2022-10-02T17:21:44.417Z,101008.19
2022-10-02T17:24:13.829Z,101010.47
2022-10-02T17:27:17.749Z,101020.53
2022-10-02T17:30:08.187Z,101017.94
2022-10-02T17:32:46.339Z,101021.94
2022-10-02T17:35:31.590Z,101018.69
2022-10-02T17:38:29.957Z,101023.63
2022-10-02T17:41:15.473Z,101021.78
2022-10-02T17:43:50.577Z,101038.78
2022-10-02T17:46:19.684Z,101038.16
2022-10-02T17:49:10.283Z,101048.38
2022-10-02T17:52:20.000Z,101057.44
2022-10-02T17:55:13.211Z,101061.13
2022-10-02T17:58:13.093Z,101079.09
2022-10-02T18:00:56.950Z,101077.94
2022-10-02T18:03:45.478Z,101080.69
2022-10-02T18:06:19.976Z,101082.28
2022-10-02T18:09:15.322Z,101086.78
2022-10-02T18:12:11.871Z,101093.78
2022-10-02T18:15:11.452Z,101095.91
2022-10-02T18:17:56.692Z,101096.19
2022-10-02T18:20:54.860Z,101097.13
2022-10-02T18:23:59.871Z,101107.44
2022-10-02T18:26:50.949Z,101118.44
2022-10-02T18:29:37.841Z,101129.97
2022-10-02T18:32:22.375Z,101130.97
2022-10-02T18:35:09.680Z,101124.31
2022-10-02T18:38:11.946Z,101130.25
2022-10-02T18:41:00.499Z,101136.91
2022-10-02T18:43:47.479Z,101136.69
2022-10-02T18:46:45.007Z,101140.06
2022-10-02T18:49:32.842Z,101143.47
2022-10-02T18:52:06.939Z,101147.16
2022-10-02T18:54:59.620Z,101144.75
2022-10-02T18:57:51.462Z,101151.59
2022-10-02T19:00:21.339Z,101156.25
2022-10-02T19:03:09.357Z,101155.06
2022-10-02T19:05:46.163Z,101155.19
2022-10-02T19:08:18.575Z,101159.09
2022-10-02T19:10:46.748Z,101157.28
2022-10-02T19:13:28.692Z,101175.50
2022-10-02T19:16:01.121Z,101171.34
2022-10-02T19:18:29.362Z,101178.56
2022-10-02T19:21:08.163Z,101183.44
2022-10-02T19:23:45.338Z,101183.44
2022-10-02T19:26:18.708Z,101192.47
2022-10-02T19:28:50.394Z,101198.56
2022-10-02T19:31:22.996Z,101205.28
2022-10-02T19:34:11.247Z,101216.16
2022-10-02T19:36:44.700Z,101219.06
2022-10-02T19:39:33.766Z,101217.63
2022-10-02T19:42:06.748Z,101219.56
2022-10-02T19:44:38.091Z,101212.00
2022-10-02T19:47:16.675Z,101226.41
2022-10-02T19:49:47.204Z,101227.63
2022-10-02T19:52:35.865Z,101233.72
2022-10-02T19:55:18.012Z,101235.56
2022-10-02T19:57:47.821Z,101249.44
2022-10-02T20:00:19.077Z,101246.75
2022-10-02T20:02:48.317Z,101248.84
2022-10-02T20:05:31.443Z,101248.59
2022-10-02T20:08:19.806Z,101252.50
2022-10-02T20:10:59.130Z,101262.78
2022-10-02T20:13:37.434Z,101259.06
2022-10-02T20:16:37.089Z,101264.69
2022-10-02T20:19:06.372Z,101281.66
2022-10-02T20:21:42.980Z,101269.81
2022-10-02T20:24:22.692Z,101273.94
2022-10-02T20:26:54.559Z,101268.34
2022-10-02T20:29:27.065Z,101273.81
2022-10-02T20:32:02.013Z,101278.44
2022-10-02T20:34:39.799Z,101275.38
2022-10-02T20:37:11.891Z,101275.03
2022-10-02T20:39:44.930Z,101286.00
2022-10-02T20:42:28.937Z,101284.59
2022-10-02T20:44:55.427Z,101292.91
2022-10-02T20:47:46.008Z,101294.59
2022-10-02T20:50:35.880Z,101309.59
2022-10-02T20:53:11.194Z,101304.56
2022-10-02T20:56:21.003Z,101308.03
2022-10-02T20:59:10.376Z,101314.56
2022-10-02T21:01:56.979Z,101316.13
2022-10-02T21:04:53.227Z,101318.47
2022-10-02T21:07:23.823Z,101320.06
2022-10-02T21:10:20.308Z,101310.56
2022-10-02T21:12:55.624Z,101318.34
2022-10-02T21:15:33.731Z,101321.78
2022-10-02T21:18:15.016Z,101324.34
2022-10-02T21:21:07.499Z,101334.34
2022-10-02T21:23:57.267Z,101333.19
2022-10-02T21:26:43.301Z,101336.72
2022-10-02T21:29:28.460Z,101337.44
2022-10-02T21:32:03.567Z,101342.06
2022-10-02T21:34:57.252Z,101342.53
2022-10-02T21:37:47.431Z,101348.16
2022-10-02T21:40:35.577Z,101346.69
2022-10-02T21:43:23.629Z,101350.31
2022-10-02T21:46:08.527Z,101353.47
2022-10-02T21:49:00.826Z,101352.50
2022-10-02T21:51:45.373Z,101352.50
2022-10-02T21:54:53.369Z,101361.03
2022-10-02T21:57:41.320Z,101367.03
2022-10-02T22:00:16.436Z,101366.94
2022-10-02T22:03:20.227Z,101376.69
2022-10-02T22:06:17.453Z,101387.16
2022-10-02T22:08:58.506Z,101376.44
2022-10-02T22:11:55.116Z,101389.00
2022-10-02T22:14:33.909Z,101379.72
2022-10-02T22:17:30.996Z,101391.31
2022-10-02T22:20:16.815Z,101396.38
2022-10-02T22:23:02.955Z,101392.84
2022-10-02T22:25:47.155Z,101400.47
2022-10-02T22:28:39.863Z,101408.81
2022-10-02T22:31:18.577Z,101408.91
2022-10-02T22:34:35.708Z,101404.53
2022-10-02T22:37:36.098Z,101410.34
2022-10-02T22:40:13.084Z,101410.44
2022-10-02T22:43:04.059Z,101406.69
2022-10-02T22:45:53.737Z,101412.06
2022-10-02T22:48:43.495Z,101417.41
2022-10-02T22:51:18.572Z,101423.88
2022-10-02T22:53:59.685Z,101432.25
2022-10-02T22:56:40.091Z,101428.72
2022-10-02T22:59:15.896Z,101434.06
2022-10-02T23:01:55.358Z,101443.31
2022-10-02T23:04:30.790Z,101439.22
2022-10-02T23:07:07.085Z,101445.69
2022-10-02T23:09:47.254Z,101446.09
2022-10-02T23:12:37.899Z,101446.09
2022-10-02T23:15:26.015Z,101451.88
2022-10-02T23:17:58.105Z,101446.00
2022-10-02T23:20:43.064Z,101452.53
2022-10-02T23:23:20.420Z,101452.94
2022-10-02T23:25:56.825Z,101454.38
2022-10-02T23:28:32.303Z,101457.47
2022-10-02T23:31:22.706Z,101454.66
2022-10-02T23:33:59.591Z,101467.50
2022-10-02T23:36:34.311Z,101463.88
2022-10-02T23:39:15.696Z,101466.88
2022-10-02T23:41:47.505Z,101465.81
2022-10-02T23:44:37.507Z,101472.41
2022-10-02T23:47:14.444Z,101475.22
2022-10-02T23:49:53.375Z,101482.59
2022-10-02T23:52:41.166Z,101485.19
2022-10-02T23:55:18.993Z,101486.47
2022-10-02T23:58:03.958Z,101480.16
